createdAt,value
2019-05-05T00:00:59.565Z,4.43
2019-05-05T00:06:08.919Z,4.26
2019-05-05T00:11:58.903Z,4.30
2019-05-05T00:17:14.500Z,4.21
2019-05-05T00:22:20.517Z,4.13
2019-05-05T00:27:30.603Z,4.36
2019-05-05T00:32:38.072Z,3.90
2019-05-05T00:42:48.001Z,4.22
2019-05-05T00:47:59.257Z,4.12
2019-05-05T00:53:05.714Z,4.11
2019-05-05T00:58:11.164Z,4.05
2019-05-05T01:03:18.469Z,4.09
2019-05-05T01:08:26.675Z,4.10
2019-05-05T01:13:32.200Z,4.10
2019-05-05T01:18:37.768Z,3.94
2019-05-05T01:23:45.555Z,4.06
2019-05-05T01:28:53.186Z,3.86
2019-05-05T01:34:24.329Z,3.59
2019-05-05T01:40:00.739Z,4.00
2019-05-05T01:45:15.694Z,3.88
2019-05-05T01:50:24.872Z,3.81
2019-05-05T01:55:30.686Z,3.82
2019-05-05T02:00:36.797Z,3.90
2019-05-05T02:05:45.547Z,3.85
2019-05-05T02:10:51.062Z,4.04
2019-05-05T02:15:57.268Z,4.06
2019-05-05T02:21:09.806Z,4.06
2019-05-05T02:26:16.055Z,3.79
2019-05-05T02:31:35.962Z,3.81
2019-05-05T02:36:41.945Z,3.81
2019-05-05T02:41:49.729Z,4.15
2019-05-05T02:47:18.767Z,3.98
2019-05-05T02:52:25.089Z,3.96
2019-05-05T02:57:31.100Z,3.99
2019-05-05T03:02:43.472Z,3.96
2019-05-05T03:07:49.108Z,3.89
2019-05-05T03:12:55.833Z,4.08
2019-05-05T03:18:04.813Z,3.78
2019-05-05T03:23:13.904Z,3.86
2019-05-05T03:28:19.958Z,3.99
2019-05-05T03:33:25.860Z,3.98
2019-05-05T03:38:33.685Z,3.55
2019-05-05T03:43:59.349Z,3.91
2019-05-05T03:49:09.797Z,3.45
2019-05-05T03:54:15.701Z,3.77
2019-05-05T03:59:24.267Z,3.90
2019-05-05T04:04:33.568Z,4.03
2019-05-05T04:09:39.119Z,3.98
2019-05-05T04:14:46.465Z,4.10
2019-05-05T04:19:56.962Z,4.10
2019-05-05T04:25:04.599Z,4.30
2019-05-05T04:30:10.610Z,3.99
2019-05-05T04:35:17.224Z,4.22
2019-05-05T04:40:24.058Z,4.65
2019-05-05T04:45:30.022Z,4.49
2019-05-05T04:50:54.443Z,4.60
2019-05-05T04:56:04.239Z,4.44
2019-05-05T05:01:09.796Z,4.88
2019-05-05T05:06:24.683Z,5.14
2019-05-05T05:11:30.179Z,5.67
2019-05-05T05:21:39.595Z,5.17
2019-05-05T05:26:46.364Z,5.48
2019-05-05T05:31:54.633Z,6.05
2019-05-05T05:37:00.663Z,6.21
2019-05-05T05:42:08.363Z,6.09
2019-05-05T05:47:35.832Z,6.19
2019-05-05T05:52:44.823Z,6.03
2019-05-05T05:57:51.189Z,4.41
2019-05-05T06:02:57.623Z,5.28
2019-05-05T06:08:04.772Z,5.87
2019-05-05T06:13:14.873Z,6.10
2019-05-05T06:18:19.350Z,6.57
2019-05-05T06:23:31.222Z,7.19
2019-05-05T06:28:36.739Z,8.08
2019-05-05T06:33:43.829Z,8.30
2019-05-05T06:38:49.443Z,8.86
2019-05-05T06:44:10.857Z,8.09
2019-05-05T06:49:16.974Z,6.23
2019-05-05T06:54:24.148Z,8.37
2019-05-05T06:59:29.994Z,8.35
2019-05-05T07:04:36.359Z,7.79
2019-05-05T07:09:44.093Z,8.34
2019-05-05T07:14:54.618Z,8.29
2019-05-05T07:20:01.686Z,8.55
2019-05-05T07:25:08.575Z,8.68
2019-05-05T07:30:14.748Z,7.98
2019-05-05T07:35:52.460Z,7.34
2019-05-05T07:40:48.753Z,6.26
2019-05-05T07:45:58.861Z,6.28
2019-05-05T07:51:05.478Z,6.75
2019-05-05T07:56:11.121Z,7.37
2019-05-05T08:01:16.782Z,6.66
2019-05-05T08:06:28.174Z,7.25
2019-05-05T08:11:34.396Z,8.96
2019-05-05T08:17:04.103Z,9.28
2019-05-05T08:22:09.706Z,9.04
2019-05-05T08:27:37.505Z,9.08
2019-05-05T08:32:43.721Z,8.58
2019-05-05T08:37:49.474Z,8.51
2019-05-05T08:42:55.199Z,7.88
2019-05-05T08:48:00.766Z,7.35
2019-05-05T08:53:08.480Z,7.90
2019-05-05T08:58:16.093Z,9.22
2019-05-05T09:03:24.317Z,9.32
2019-05-05T09:08:30.832Z,9.36
2019-05-05T09:13:37.277Z,9.09
2019-05-05T09:18:59.509Z,9.93
2019-05-05T09:24:35.714Z,9.47
2019-05-05T09:29:48.335Z,7.83
2019-05-05T09:34:54.355Z,8.31
2019-05-05T09:40:00.248Z,9.28
2019-05-05T09:45:09.934Z,10.47
2019-05-05T09:50:15.703Z,10.69
2019-05-05T09:55:21.391Z,8.93
2019-05-05T10:00:34.865Z,8.76
2019-05-05T10:05:41.986Z,9.10
2019-05-05T10:10:49.292Z,9.01
2019-05-05T10:15:55.903Z,9.44
2019-05-05T10:21:02.008Z,10.58
2019-05-05T10:26:14.959Z,11.04
2019-05-05T10:31:24.431Z,10.18
2019-05-05T10:36:30.348Z,10.06
2019-05-05T10:41:40.444Z,11.63
2019-05-05T10:46:46.482Z,11.17
2019-05-05T10:51:54.172Z,10.10
2019-05-05T10:56:59.445Z,9.71
2019-05-05T11:02:05.389Z,11.17
2019-05-05T11:07:11.410Z,9.20
2019-05-05T11:12:19.771Z,10.38
2019-05-05T11:17:25.435Z,10.01
2019-05-05T11:22:31.012Z,10.68
2019-05-05T11:27:37.062Z,11.89
2019-05-05T11:33:03.877Z,11.05
2019-05-05T11:38:10.739Z,10.68
2019-05-05T11:43:17.518Z,10.70
2019-05-05T11:48:24.034Z,10.43
2019-05-05T11:53:30.336Z,10.62
2019-05-05T11:58:37.306Z,10.19
2019-05-05T12:03:44.433Z,10.30
2019-05-05T12:08:51.950Z,12.09
2019-05-05T12:13:58.073Z,11.33
2019-05-05T12:19:13.860Z,12.59
2019-05-05T12:24:26.250Z,11.87
2019-05-05T12:29:37.661Z,12.42
2019-05-05T12:34:45.057Z,12.03
2019-05-05T12:39:54.620Z,13.24
2019-05-05T12:45:04.898Z,14.14
2019-05-05T12:50:11.391Z,12.05
2019-05-05T12:55:16.952Z,12.61
2019-05-05T13:00:23.302Z,11.85
2019-05-05T13:05:28.935Z,10.72
2019-05-05T13:10:34.580Z,13.08
2019-05-05T13:15:41.553Z,12.24
2019-05-05T13:21:04.269Z,10.30
2019-05-05T13:26:19.459Z,10.91
2019-05-05T13:31:25.067Z,12.83
2019-05-05T13:36:33.346Z,12.52
2019-05-05T13:41:41.959Z,13.53
2019-05-05T13:46:47.571Z,11.53
2019-05-05T13:51:55.257Z,10.64
2019-05-05T13:57:04.281Z,12.28
2019-05-05T14:02:11.114Z,12.75
2019-05-05T14:07:18.370Z,11.77
2019-05-05T14:12:25.793Z,12.06
2019-05-05T14:17:33.015Z,12.37
2019-05-05T14:22:40.193Z,11.77
2019-05-05T14:27:49.227Z,12.33
2019-05-05T14:32:57.145Z,11.92
2019-05-05T14:38:07.807Z,13.16
2019-05-05T14:43:19.405Z,13.75
2019-05-05T14:48:25.041Z,13.50
2019-05-05T14:53:39.483Z,12.15
2019-05-05T14:58:45.564Z,10.88
2019-05-05T15:03:53.509Z,9.75
2019-05-05T15:09:24.732Z,10.33
2019-05-05T15:14:35.054Z,9.56
2019-05-05T15:19:44.287Z,10.43
2019-05-05T15:24:51.008Z,9.91
2019-05-05T15:30:01.087Z,10.22
2019-05-05T15:35:07.957Z,11.02
2019-05-05T15:40:21.633Z,11.34
2019-05-05T15:45:30.138Z,11.03
2019-05-05T15:50:39.604Z,12.51
2019-05-05T15:55:50.353Z,11.97
2019-05-05T16:00:58.227Z,10.35
2019-05-05T16:06:06.151Z,10.42
2019-05-05T16:11:16.911Z,10.39
2019-05-05T16:16:34.123Z,10.63
2019-05-05T16:21:47.588Z,11.67
2019-05-05T16:26:55.560Z,12.13
2019-05-05T16:32:05.484Z,12.28
2019-05-05T16:37:14.293Z,11.96
2019-05-05T16:42:27.669Z,10.26
2019-05-05T16:47:34.211Z,9.95
2019-05-05T16:52:46.844Z,10.27
2019-05-05T16:57:55.014Z,10.76
2019-05-05T17:03:04.175Z,10.96
2019-05-05T17:08:17.172Z,10.70
2019-05-05T17:13:40.515Z,10.95
2019-05-05T17:19:06.145Z,10.80
2019-05-05T17:24:18.057Z,10.90
2019-05-05T17:29:26.516Z,10.92
2019-05-05T17:34:34.060Z,10.78
2019-05-05T17:39:51.879Z,10.81
2019-05-05T17:45:24.554Z,10.86
2019-05-05T17:50:49.243Z,10.75
2019-05-05T17:55:57.239Z,10.80
2019-05-05T18:01:05.388Z,10.49
2019-05-05T18:06:30.112Z,10.53
2019-05-05T18:12:04.447Z,10.67
2019-05-05T18:17:10.487Z,10.43
2019-05-05T18:22:19.505Z,10.39
2019-05-05T18:27:25.465Z,10.13
2019-05-05T18:32:31.323Z,9.91
2019-05-05T18:37:37.336Z,9.54
2019-05-05T18:42:44.624Z,9.71
2019-05-05T18:47:50.952Z,9.20
2019-05-05T18:52:56.806Z,9.22
2019-05-05T18:58:06.529Z,9.38
2019-05-05T19:03:20.559Z,9.17
2019-05-05T19:08:30.286Z,8.81
2019-05-05T19:13:38.195Z,8.97
2019-05-05T19:18:44.758Z,8.56
2019-05-05T19:23:54.189Z,8.35
2019-05-05T19:29:07.367Z,8.20
2019-05-05T19:34:18.992Z,8.25
2019-05-05T19:39:25.216Z,8.18
2019-05-05T19:44:33.710Z,7.92
2019-05-05T19:49:50.154Z,8.01
2019-05-05T19:55:21.038Z,7.81
2019-05-05T20:00:31.371Z,7.76
2019-05-05T20:05:38.105Z,7.77
2019-05-05T20:10:47.805Z,7.65
2019-05-05T20:16:06.187Z,7.66
2019-05-05T20:21:11.865Z,7.43
2019-05-05T20:26:17.618Z,7.42
2019-05-05T20:31:29.095Z,7.38
2019-05-05T20:36:35.404Z,6.92
2019-05-05T20:41:43.595Z,6.97
2019-05-05T20:46:50.920Z,7.12
2019-05-05T20:51:56.632Z,6.97
2019-05-05T20:57:10.739Z,7.18
2019-05-05T21:02:16.255Z,6.85
2019-05-05T21:07:26.262Z,6.40
2019-05-05T21:12:41.723Z,6.50
2019-05-05T21:17:37.359Z,6.11
2019-05-05T21:23:03.665Z,5.96
2019-05-05T21:28:11.207Z,5.87
2019-05-05T21:33:17.942Z,5.39
2019-05-05T21:38:23.490Z,5.55
2019-05-05T21:43:33.184Z,5.69
2019-05-05T21:48:39.219Z,5.55
2019-05-05T21:53:53.773Z,5.63
2019-05-05T21:59:00.023Z,5.01
2019-05-05T22:04:12.642Z,5.08
2019-05-05T22:09:20.199Z,5.31
2019-05-05T22:14:25.764Z,4.89
2019-05-05T22:19:34.510Z,5.27
2019-05-05T22:24:40.692Z,4.98
2019-05-05T22:29:48.556Z,5.15
2019-05-05T22:34:54.778Z,5.05
2019-05-05T22:40:01.100Z,4.80
2019-05-05T22:45:07.626Z,4.61
2019-05-05T22:50:13.923Z,4.60
2019-05-05T22:55:21.427Z,5.01
2019-05-05T23:00:30.832Z,5.07
2019-05-05T23:05:49.664Z,4.72
2019-05-05T23:10:56.183Z,4.74
2019-05-05T23:16:16.949Z,4.80
2019-05-05T23:21:34.286Z,4.59
2019-05-05T23:26:43.875Z,4.30
2019-05-05T23:31:53.818Z,4.48
2019-05-05T23:37:00.030Z,4.20
2019-05-05T23:42:06.163Z,4.42
2019-05-05T23:47:13.724Z,4.52
2019-05-05T23:52:19.095Z,4.32
2019-05-05T23:57:24.615Z,4.23
